sensor_id;sensor_type;location;lat;lon;timestamp;P1;durP1;ratioP1;P2;durP2;ratioP2
25419;SDS011;13354;48.174;11.566;2023-11-19T00:01:32;3.10;;;2.75;;
25419;SDS011;13354;48.174;11.566;2023-11-19T00:03:57;4.13;;;3.17;;
25419;SDS011;13354;48.174;11.566;2023-11-19T00:06:23;2.88;;;2.50;;
25419;SDS011;13354;48.174;11.566;2023-11-19T00:08:48;4.18;;;3.10;;
25419;SDS011;13354;48.174;11.566;2023-11-19T00:11:15;4.43;;;3.10;;
25419;SDS011;13354;48.174;11.566;2023-11-19T00:13:40;2.90;;;2.58;;
25419;SDS011;13354;48.174;11.566;2023-11-19T00:16:06;3.92;;;3.15;;
25419;SDS011;13354;48.174;11.566;2023-11-19T00:18:32;4.57;;;3.13;;
25419;SDS011;13354;48.174;11.566;2023-11-19T00:20:58;4.05;;;2.70;;
25419;SDS011;13354;48.174;11.566;2023-11-19T00:23:23;3.25;;;2.40;;
25419;SDS011;13354;48.174;11.566;2023-11-19T00:25:49;4.45;;;3.50;;
25419;SDS011;13354;48.174;11.566;2023-11-19T00:28:14;4.40;;;3.53;;
25419;SDS011;13354;48.174;11.566;2023-11-19T00:30:40;4.10;;;3.50;;
25419;SDS011;13354;48.174;11.566;2023-11-19T00:33:08;4.72;;;3.42;;
25419;SDS011;13354;48.174;11.566;2023-11-19T00:35:33;4.20;;;3.30;;
25419;SDS011;13354;48.174;11.566;2023-11-19T00:37:59;4.32;;;3.72;;
25419;SDS011;13354;48.174;11.566;2023-11-19T00:40:25;4.25;;;3.58;;
25419;SDS011;13354;48.174;11.566;2023-11-19T00:42:51;6.55;;;3.80;;
25419;SDS011;13354;48.174;11.566;2023-11-19T00:45:16;4.30;;;3.22;;
25419;SDS011;13354;48.174;11.566;2023-11-19T00:47:42;4.63;;;3.50;;
25419;SDS011;13354;48.174;11.566;2023-11-19T00:50:08;5.45;;;3.67;;
25419;SDS011;13354;48.174;11.566;2023-11-19T00:52:37;3.88;;;3.10;;
25419;SDS011;13354;48.174;11.566;2023-11-19T00:55:04;3.60;;;3.25;;
25419;SDS011;13354;48.174;11.566;2023-11-19T00:57:31;4.18;;;3.28;;
25419;SDS011;13354;48.174;11.566;2023-11-19T01:00:01;3.65;;;3.35;;
25419;SDS011;13354;48.174;11.566;2023-11-19T01:02:29;4.60;;;3.13;;
25419;SDS011;13354;48.174;11.566;2023-11-19T01:05:01;3.55;;;3.25;;
25419;SDS011;13354;48.174;11.566;2023-11-19T01:07:26;4.50;;;3.40;;
25419;SDS011;13354;48.174;11.566;2023-11-19T01:09:52;4.15;;;3.25;;
25419;SDS011;13354;48.174;11.566;2023-11-19T01:12:19;4.18;;;3.30;;
25419;SDS011;13354;48.174;11.566;2023-11-19T01:14:44;4.38;;;3.05;;
25419;SDS011;13354;48.174;11.566;2023-11-19T01:17:09;3.05;;;2.63;;
25419;SDS011;13354;48.174;11.566;2023-11-19T01:19:35;3.08;;;2.67;;
25419;SDS011;13354;48.174;11.566;2023-11-19T01:22:00;2.97;;;2.65;;
25419;SDS011;13354;48.174;11.566;2023-11-19T01:24:26;3.22;;;2.92;;
25419;SDS011;13354;48.174;11.566;2023-11-19T01:26:53;2.78;;;2.42;;
25419;SDS011;13354;48.174;11.566;2023-11-19T01:29:19;3.92;;;2.40;;
25419;SDS011;13354;48.174;11.566;2023-11-19T01:31:45;3.63;;;2.33;;
25419;SDS011;13354;48.174;11.566;2023-11-19T01:34:12;2.78;;;2.38;;
25419;SDS011;13354;48.174;11.566;2023-11-19T01:36:37;3.17;;;2.35;;
25419;SDS011;13354;48.174;11.566;2023-11-19T01:39:04;2.33;;;2.03;;
25419;SDS011;13354;48.174;11.566;2023-11-19T01:41:29;4.00;;;2.90;;
25419;SDS011;13354;48.174;11.566;2023-11-19T01:43:59;3.83;;;2.33;;
25419;SDS011;13354;48.174;11.566;2023-11-19T01:46:25;3.25;;;2.50;;
25419;SDS011;13354;48.174;11.566;2023-11-19T01:48:51;2.60;;;2.40;;
25419;SDS011;13354;48.174;11.566;2023-11-19T01:51:17;3.38;;;2.40;;
25419;SDS011;13354;48.174;11.566;2023-11-19T01:53:43;4.43;;;2.50;;
25419;SDS011;13354;48.174;11.566;2023-11-19T01:56:09;3.20;;;2.17;;
25419;SDS011;13354;48.174;11.566;2023-11-19T01:58:38;2.50;;;2.17;;
25419;SDS011;13354;48.174;11.566;2023-11-19T02:01:05;2.35;;;2.15;;
25419;SDS011;13354;48.174;11.566;2023-11-19T02:03:32;2.88;;;2.05;;
25419;SDS011;13354;48.174;11.566;2023-11-19T02:05:58;3.38;;;2.00;;
25419;SDS011;13354;48.174;11.566;2023-11-19T02:08:24;8.50;;;5.82;;
25419;SDS011;13354;48.174;11.566;2023-11-19T02:10:49;3.15;;;2.33;;
25419;SDS011;13354;48.174;11.566;2023-11-19T02:13:15;3.65;;;2.22;;
25419;SDS011;13354;48.174;11.566;2023-11-19T02:15:41;3.42;;;2.00;;
25419;SDS011;13354;48.174;11.566;2023-11-19T02:20:58;4.78;;;2.30;;
25419;SDS011;13354;48.174;11.566;2023-11-19T02:23:24;4.95;;;2.20;;
25419;SDS011;13354;48.174;11.566;2023-11-19T02:25:56;2.03;;;1.83;;
25419;SDS011;13354;48.174;11.566;2023-11-19T02:28:27;5.50;;;2.17;;
25419;SDS011;13354;48.174;11.566;2023-11-19T02:30:53;2.10;;;1.80;;
25419;SDS011;13354;48.174;11.566;2023-11-19T02:33:18;2.00;;;1.75;;
25419;SDS011;13354;48.174;11.566;2023-11-19T02:35:44;1.90;;;1.75;;
25419;SDS011;13354;48.174;11.566;2023-11-19T02:38:09;2.78;;;1.95;;
25419;SDS011;13354;48.174;11.566;2023-11-19T02:40:34;2.85;;;1.90;;
25419;SDS011;13354;48.174;11.566;2023-11-19T02:43:00;2.22;;;1.70;;
25419;SDS011;13354;48.174;11.566;2023-11-19T02:45:26;3.85;;;2.10;;
25419;SDS011;13354;48.174;11.566;2023-11-19T02:47:51;2.65;;;2.20;;
25419;SDS011;13354;48.174;11.566;2023-11-19T02:50:18;2.78;;;1.95;;
25419;SDS011;13354;48.174;11.566;2023-11-19T02:52:50;2.38;;;1.92;;
25419;SDS011;13354;48.174;11.566;2023-11-19T02:55:17;2.60;;;1.85;;
25419;SDS011;13354;48.174;11.566;2023-11-19T02:57:43;2.10;;;1.90;;
25419;SDS011;13354;48.174;11.566;2023-11-19T03:00:17;2.15;;;1.95;;
25419;SDS011;13354;48.174;11.566;2023-11-19T03:02:44;2.22;;;1.80;;
25419;SDS011;13354;48.174;11.566;2023-11-19T03:05:14;2.53;;;1.80;;
25419;SDS011;13354;48.174;11.566;2023-11-19T03:07:41;1.70;;;1.60;;
25419;SDS011;13354;48.174;11.566;2023-11-19T03:10:08;1.88;;;1.67;;
25419;SDS011;13354;48.174;11.566;2023-11-19T03:12:39;1.90;;;1.38;;
25419;SDS011;13354;48.174;11.566;2023-11-19T03:15:05;1.73;;;1.40;;
25419;SDS011;13354;48.174;11.566;2023-11-19T03:17:31;1.88;;;1.40;;
25419;SDS011;13354;48.174;11.566;2023-11-19T03:19:56;1.70;;;1.40;;
25419;SDS011;13354;48.174;11.566;2023-11-19T03:22:21;2.00;;;1.80;;
25419;SDS011;13354;48.174;11.566;2023-11-19T03:24:47;1.80;;;1.70;;
25419;SDS011;13354;48.174;11.566;2023-11-19T03:27:15;1.67;;;1.58;;
25419;SDS011;13354;48.174;11.566;2023-11-19T03:29:40;1.80;;;1.23;;
25419;SDS011;13354;48.174;11.566;2023-11-19T03:32:06;1.58;;;1.48;;
25419;SDS011;13354;48.174;11.566;2023-11-19T03:34:31;1.40;;;1.30;;
25419;SDS011;13354;48.174;11.566;2023-11-19T03:36:57;1.73;;;1.20;;
25419;SDS011;13354;48.174;11.566;2023-11-19T03:39:22;2.35;;;1.13;;
25419;SDS011;13354;48.174;11.566;2023-11-19T03:41:50;1.23;;;1.13;;
25419;SDS011;13354;48.174;11.566;2023-11-19T03:44:15;1.88;;;1.10;;
25419;SDS011;13354;48.174;11.566;2023-11-19T03:46:41;1.42;;;1.20;;
25419;SDS011;13354;48.174;11.566;2023-11-19T03:49:06;1.70;;;0.90;;
25419;SDS011;13354;48.174;11.566;2023-11-19T03:51:32;2.15;;;1.08;;
25419;SDS011;13354;48.174;11.566;2023-11-19T03:53:57;1.67;;;0.90;;
25419;SDS011;13354;48.174;11.566;2023-11-19T03:56:24;1.40;;;0.90;;
25419;SDS011;13354;48.174;11.566;2023-11-19T03:58:49;2.15;;;0.98;;
25419;SDS011;13354;48.174;11.566;2023-11-19T04:01:14;1.05;;;0.90;;
25419;SDS011;13354;48.174;11.566;2023-11-19T04:03:40;0.77;;;0.77;;
25419;SDS011;13354;48.174;11.566;2023-11-19T04:06:05;1.48;;;1.10;;
25419;SDS011;13354;48.174;11.566;2023-11-19T04:08:31;0.80;;;0.80;;
25419;SDS011;13354;48.174;11.566;2023-11-19T04:10:56;1.70;;;0.70;;
25419;SDS011;13354;48.174;11.566;2023-11-19T04:13:21;0.70;;;0.70;;
25419;SDS011;13354;48.174;11.566;2023-11-19T04:15:48;1.23;;;0.70;;
25419;SDS011;13354;48.174;11.566;2023-11-19T04:18:14;0.60;;;0.60;;
25419;SDS011;13354;48.174;11.566;2023-11-19T04:20:39;0.55;;;0.55;;
25419;SDS011;13354;48.174;11.566;2023-11-19T04:23:07;0.60;;;0.60;;
25419;SDS011;13354;48.174;11.566;2023-11-19T04:25:32;0.75;;;0.68;;
25419;SDS011;13354;48.174;11.566;2023-11-19T04:27:58;1.23;;;0.60;;
25419;SDS011;13354;48.174;11.566;2023-11-19T04:30:23;0.60;;;0.60;;
25419;SDS011;13354;48.174;11.566;2023-11-19T04:32:49;0.60;;;0.60;;
25419;SDS011;13354;48.174;11.566;2023-11-19T04:35:14;0.73;;;0.70;;
25419;SDS011;13354;48.174;11.566;2023-11-19T04:37:40;2.55;;;0.80;;
25419;SDS011;13354;48.174;11.566;2023-11-19T04:40:07;0.70;;;0.70;;
25419;SDS011;13354;48.174;11.566;2023-11-19T04:42:32;0.80;;;0.70;;
25419;SDS011;13354;48.174;11.566;2023-11-19T04:44:58;0.88;;;0.80;;
25419;SDS011;13354;48.174;11.566;2023-11-19T04:47:23;0.65;;;0.65;;
25419;SDS011;13354;48.174;11.566;2023-11-19T04:49:48;1.05;;;0.77;;
25419;SDS011;13354;48.174;11.566;2023-11-19T04:52:14;1.35;;;0.70;;
25419;SDS011;13354;48.174;11.566;2023-11-19T04:54:43;0.80;;;0.80;;
25419;SDS011;13354;48.174;11.566;2023-11-19T04:57:08;0.77;;;0.60;;
25419;SDS011;13354;48.174;11.566;2023-11-19T04:59:36;0.95;;;0.80;;
25419;SDS011;13354;48.174;11.566;2023-11-19T05:02:01;1.30;;;0.70;;
25419;SDS011;13354;48.174;11.566;2023-11-19T05:04:27;1.17;;;0.70;;
25419;SDS011;13354;48.174;11.566;2023-11-19T05:06:52;0.98;;;0.70;;
25419;SDS011;13354;48.174;11.566;2023-11-19T05:09:18;0.98;;;0.75;;
25419;SDS011;13354;48.174;11.566;2023-11-19T05:11:43;0.95;;;0.70;;
25419;SDS011;13354;48.174;11.566;2023-11-19T05:14:09;0.77;;;0.77;;
25419;SDS011;13354;48.174;11.566;2023-11-19T05:16:34;1.00;;;0.88;;
25419;SDS011;13354;48.174;11.566;2023-11-19T05:19:00;0.95;;;0.80;;
25419;SDS011;13354;48.174;11.566;2023-11-19T05:21:25;0.82;;;0.70;;
25419;SDS011;13354;48.174;11.566;2023-11-19T05:23:51;0.82;;;0.80;;
25419;SDS011;13354;48.174;11.566;2023-11-19T05:26:20;0.73;;;0.70;;
25419;SDS011;13354;48.174;11.566;2023-11-19T05:28:46;1.48;;;0.90;;
25419;SDS011;13354;48.174;11.566;2023-11-19T05:31:12;0.90;;;0.90;;
25419;SDS011;13354;48.174;11.566;2023-11-19T05:33:37;0.85;;;0.80;;
25419;SDS011;13354;48.174;11.566;2023-11-19T05:36:03;2.88;;;1.20;;
25419;SDS011;13354;48.174;11.566;2023-11-19T05:38:29;1.77;;;1.00;;
25419;SDS011;13354;48.174;11.566;2023-11-19T05:40:55;0.85;;;0.82;;
25419;SDS011;13354;48.174;11.566;2023-11-19T05:43:20;2.40;;;0.90;;
25419;SDS011;13354;48.174;11.566;2023-11-19T05:45:46;1.10;;;1.00;;
25419;SDS011;13354;48.174;11.566;2023-11-19T05:48:12;1.88;;;0.88;;
25419;SDS011;13354;48.174;11.566;2023-11-19T05:50:37;0.98;;;0.80;;
25419;SDS011;13354;48.174;11.566;2023-11-19T05:53:04;1.58;;;1.30;;
25419;SDS011;13354;48.174;11.566;2023-11-19T05:55:35;1.60;;;1.17;;
25419;SDS011;13354;48.174;11.566;2023-11-19T05:58:11;1.15;;;1.05;;
25419;SDS011;13354;48.174;11.566;2023-11-19T06:00:38;3.58;;;1.70;;
25419;SDS011;13354;48.174;11.566;2023-11-19T06:03:05;1.42;;;1.33;;
25419;SDS011;13354;48.174;11.566;2023-11-19T06:05:32;0.70;;;0.70;;
25419;SDS011;13354;48.174;11.566;2023-11-19T06:07:58;1.08;;;0.88;;
25419;SDS011;13354;48.174;11.566;2023-11-19T06:10:24;0.95;;;0.85;;
25419;SDS011;13354;48.174;11.566;2023-11-19T06:12:56;0.73;;;0.73;;
25419;SDS011;13354;48.174;11.566;2023-11-19T06:15:25;0.73;;;0.73;;
25419;SDS011;13354;48.174;11.566;2023-11-19T06:17:51;0.75;;;0.70;;
25419;SDS011;13354;48.174;11.566;2023-11-19T06:20:17;1.63;;;0.95;;
25419;SDS011;13354;48.174;11.566;2023-11-19T06:22:44;0.82;;;0.77;;
25419;SDS011;13354;48.174;11.566;2023-11-19T06:25:10;1.23;;;0.68;;
25419;SDS011;13354;48.174;11.566;2023-11-19T06:27:36;1.02;;;0.60;;
25419;SDS011;13354;48.174;11.566;2023-11-19T06:30:02;1.42;;;0.70;;
25419;SDS011;13354;48.174;11.566;2023-11-19T06:32:28;0.70;;;0.70;;
25419;SDS011;13354;48.174;11.566;2023-11-19T06:34:53;0.70;;;0.70;;
25419;SDS011;13354;48.174;11.566;2023-11-19T06:37:19;0.65;;;0.65;;
25419;SDS011;13354;48.174;11.566;2023-11-19T06:39:44;0.70;;;0.70;;
25419;SDS011;13354;48.174;11.566;2023-11-19T06:42:10;0.70;;;0.70;;
25419;SDS011;13354;48.174;11.566;2023-11-19T06:44:36;0.95;;;0.65;;
25419;SDS011;13354;48.174;11.566;2023-11-19T06:47:01;0.63;;;0.60;;
25419;SDS011;13354;48.174;11.566;2023-11-19T06:49:26;0.50;;;0.50;;
25419;SDS011;13354;48.174;11.566;2023-11-19T06:51:52;0.50;;;0.50;;
25419;SDS011;13354;48.174;11.566;2023-11-19T06:54:17;0.65;;;0.65;;
25419;SDS011;13354;48.174;11.566;2023-11-19T06:56:43;0.90;;;0.80;;
25419;SDS011;13354;48.174;11.566;2023-11-19T06:59:08;0.47;;;0.47;;
25419;SDS011;13354;48.174;11.566;2023-11-19T07:01:35;0.63;;;0.63;;
25419;SDS011;13354;48.174;11.566;2023-11-19T07:04:01;4.85;;;0.50;;
25419;SDS011;13354;48.174;11.566;2023-11-19T07:06:33;0.50;;;0.50;;
25419;SDS011;13354;48.174;11.566;2023-11-19T07:08:58;0.50;;;0.50;;
25419;SDS011;13354;48.174;11.566;2023-11-19T07:11:23;0.52;;;0.52;;
25419;SDS011;13354;48.174;11.566;2023-11-19T07:13:49;0.57;;;0.40;;
25419;SDS011;13354;48.174;11.566;2023-11-19T07:16:15;1.45;;;0.55;;
25419;SDS011;13354;48.174;11.566;2023-11-19T07:18:40;0.40;;;0.40;;
25419;SDS011;13354;48.174;11.566;2023-11-19T07:21:08;0.50;;;0.40;;
25419;SDS011;13354;48.174;11.566;2023-11-19T07:23:35;0.40;;;0.40;;
25419;SDS011;13354;48.174;11.566;2023-11-19T07:26:00;0.40;;;0.40;;
25419;SDS011;13354;48.174;11.566;2023-11-19T07:28:26;1.38;;;0.40;;
25419;SDS011;13354;48.174;11.566;2023-11-19T07:30:53;0.65;;;0.40;;
25419;SDS011;13354;48.174;11.566;2023-11-19T07:33:21;0.43;;;0.43;;
25419;SDS011;13354;48.174;11.566;2023-11-19T07:35:46;0.40;;;0.40;;
25419;SDS011;13354;48.174;11.566;2023-11-19T07:38:11;0.30;;;0.30;;
25419;SDS011;13354;48.174;11.566;2023-11-19T07:40:37;0.60;;;0.60;;
25419;SDS011;13354;48.174;11.566;2023-11-19T07:43:02;0.60;;;0.52;;
25419;SDS011;13354;48.174;11.566;2023-11-19T07:45:27;0.73;;;0.60;;
25419;SDS011;13354;48.174;11.566;2023-11-19T07:47:53;0.50;;;0.40;;
25419;SDS011;13354;48.174;11.566;2023-11-19T07:50:19;2.60;;;0.47;;
25419;SDS011;13354;48.174;11.566;2023-11-19T07:52:45;1.67;;;0.60;;
25419;SDS011;13354;48.174;11.566;2023-11-19T07:55:10;1.10;;;0.50;;
25419;SDS011;13354;48.174;11.566;2023-11-19T07:57:36;0.40;;;0.40;;
25419;SDS011;13354;48.174;11.566;2023-11-19T08:00:02;0.47;;;0.40;;
25419;SDS011;13354;48.174;11.566;2023-11-19T08:02:28;0.25;;;0.20;;
25419;SDS011;13354;48.174;11.566;2023-11-19T08:04:54;0.30;;;0.30;;
25419;SDS011;13354;48.174;11.566;2023-11-19T08:07:20;0.40;;;0.40;;
25419;SDS011;13354;48.174;11.566;2023-11-19T08:09:47;0.50;;;0.40;;
25419;SDS011;13354;48.174;11.566;2023-11-19T08:12:12;0.40;;;0.40;;
25419;SDS011;13354;48.174;11.566;2023-11-19T08:14:40;0.35;;;0.35;;
25419;SDS011;13354;48.174;11.566;2023-11-19T08:17:06;0.80;;;0.30;;
25419;SDS011;13354;48.174;11.566;2023-11-19T08:19:31;0.52;;;0.40;;
25419;SDS011;13354;48.174;11.566;2023-11-19T08:21:57;0.30;;;0.30;;
25419;SDS011;13354;48.174;11.566;2023-11-19T08:24:22;0.35;;;0.30;;
25419;SDS011;13354;48.174;11.566;2023-11-19T08:26:48;0.55;;;0.52;;
25419;SDS011;13354;48.174;11.566;2023-11-19T08:29:13;0.98;;;0.45;;
25419;SDS011;13354;48.174;11.566;2023-11-19T08:31:39;0.80;;;0.40;;
25419;SDS011;13354;48.174;11.566;2023-11-19T08:34:04;1.42;;;0.50;;
25419;SDS011;13354;48.174;11.566;2023-11-19T08:36:33;0.47;;;0.40;;
25419;SDS011;13354;48.174;11.566;2023-11-19T08:38:59;0.93;;;0.50;;
25419;SDS011;13354;48.174;11.566;2023-11-19T08:41:25;0.60;;;0.60;;
25419;SDS011;13354;48.174;11.566;2023-11-19T08:43:50;0.60;;;0.60;;
25419;SDS011;13354;48.174;11.566;2023-11-19T08:46:16;0.45;;;0.40;;
25419;SDS011;13354;48.174;11.566;2023-11-19T08:48:42;1.02;;;0.88;;
25419;SDS011;13354;48.174;11.566;2023-11-19T08:51:07;0.63;;;0.50;;
25419;SDS011;13354;48.174;11.566;2023-11-19T08:53:33;0.40;;;0.40;;
25419;SDS011;13354;48.174;11.566;2023-11-19T08:55:59;0.40;;;0.40;;
25419;SDS011;13354;48.174;11.566;2023-11-19T08:58:25;0.50;;;0.50;;
25419;SDS011;13354;48.174;11.566;2023-11-19T09:00:50;1.45;;;0.60;;
25419;SDS011;13354;48.174;11.566;2023-11-19T09:03:16;0.45;;;0.45;;
25419;SDS011;13354;48.174;11.566;2023-11-19T09:05:41;0.40;;;0.40;;
25419;SDS011;13354;48.174;11.566;2023-11-19T09:08:06;0.30;;;0.30;;
25419;SDS011;13354;48.174;11.566;2023-11-19T09:10:32;0.60;;;0.60;;
25419;SDS011;13354;48.174;11.566;2023-11-19T09:12:57;1.17;;;0.60;;
25419;SDS011;13354;48.174;11.566;2023-11-19T09:15:23;0.75;;;0.60;;
25419;SDS011;13354;48.174;11.566;2023-11-19T09:17:49;0.70;;;0.57;;
25419;SDS011;13354;48.174;11.566;2023-11-19T09:20:14;0.43;;;0.43;;
25419;SDS011;13354;48.174;11.566;2023-11-19T09:22:40;0.77;;;0.60;;
25419;SDS011;13354;48.174;11.566;2023-11-19T09:25:06;0.40;;;0.40;;
25419;SDS011;13354;48.174;11.566;2023-11-19T09:27:31;0.70;;;0.60;;
25419;SDS011;13354;48.174;11.566;2023-11-19T09:29:56;0.55;;;0.50;;
25419;SDS011;13354;48.174;11.566;2023-11-19T09:32:23;1.05;;;0.60;;
25419;SDS011;13354;48.174;11.566;2023-11-19T09:34:52;0.88;;;0.40;;
25419;SDS011;13354;48.174;11.566;2023-11-19T09:37:21;0.60;;;0.60;;
25419;SDS011;13354;48.174;11.566;2023-11-19T09:39:46;0.57;;;0.50;;
25419;SDS011;13354;48.174;11.566;2023-11-19T09:42:12;4.90;;;3.65;;
25419;SDS011;13354;48.174;11.566;2023-11-19T09:44:37;0.90;;;0.80;;
25419;SDS011;13354;48.174;11.566;2023-11-19T09:47:04;1.08;;;0.55;;
25419;SDS011;13354;48.174;11.566;2023-11-19T09:49:31;0.45;;;0.45;;
25419;SDS011;13354;48.174;11.566;2023-11-19T09:51:58;0.95;;;0.55;;
25419;SDS011;13354;48.174;11.566;2023-11-19T09:54:23;0.40;;;0.40;;
25419;SDS011;13354;48.174;11.566;2023-11-19T09:56:49;0.57;;;0.57;;
25419;SDS011;13354;48.174;11.566;2023-11-19T09:59:15;0.85;;;0.55;;
25419;SDS011;13354;48.174;11.566;2023-11-19T10:01:41;0.40;;;0.40;;
25419;SDS011;13354;48.174;11.566;2023-11-19T10:04:08;0.75;;;0.60;;
25419;SDS011;13354;48.174;11.566;2023-11-19T10:06:37;0.50;;;0.50;;
25419;SDS011;13354;48.174;11.566;2023-11-19T10:09:02;0.73;;;0.60;;
25419;SDS011;13354;48.174;11.566;2023-11-19T10:11:30;0.65;;;0.60;;
25419;SDS011;13354;48.174;11.566;2023-11-19T10:13:56;0.60;;;0.60;;
25419;SDS011;13354;48.174;11.566;2023-11-19T10:16:27;0.82;;;0.60;;
25419;SDS011;13354;48.174;11.566;2023-11-19T10:18:55;0.97;;;0.70;;
25419;SDS011;13354;48.174;11.566;2023-11-19T10:21:21;0.98;;;0.80;;
25419;SDS011;13354;48.174;11.566;2023-11-19T10:23:56;0.50;;;0.50;;
25419;SDS011;13354;48.174;11.566;2023-11-19T10:26:24;0.50;;;0.50;;
25419;SDS011;13354;48.174;11.566;2023-11-19T10:28:50;0.52;;;0.52;;
25419;SDS011;13354;48.174;11.566;2023-11-19T10:31:16;0.70;;;0.70;;
25419;SDS011;13354;48.174;11.566;2023-11-19T10:33:42;0.65;;;0.50;;
25419;SDS011;13354;48.174;11.566;2023-11-19T10:36:10;1.05;;;0.50;;
25419;SDS011;13354;48.174;11.566;2023-11-19T10:38:40;1.40;;;0.68;;
25419;SDS011;13354;48.174;11.566;2023-11-19T10:41:26;0.50;;;0.43;;
25419;SDS011;13354;48.174;11.566;2023-11-19T10:43:52;0.93;;;0.50;;
25419;SDS011;13354;48.174;11.566;2023-11-19T10:46:18;1.05;;;0.50;;
25419;SDS011;13354;48.174;11.566;2023-11-19T10:48:47;1.40;;;0.55;;
25419;SDS011;13354;48.174;11.566;2023-11-19T10:51:13;2.20;;;1.88;;
25419;SDS011;13354;48.174;11.566;2023-11-19T10:53:48;0.40;;;0.40;;
25419;SDS011;13354;48.174;11.566;2023-11-19T10:56:15;0.45;;;0.40;;
25419;SDS011;13354;48.174;11.566;2023-11-19T10:58:44;0.28;;;0.28;;
25419;SDS011;13354;48.174;11.566;2023-11-19T11:01:15;0.30;;;0.30;;
25419;SDS011;13354;48.174;11.566;2023-11-19T11:03:43;0.38;;;0.30;;
25419;SDS011;13354;48.174;11.566;2023-11-19T11:06:10;0.63;;;0.50;;
25419;SDS011;13354;48.174;11.566;2023-11-19T11:08:38;0.50;;;0.32;;
25419;SDS011;13354;48.174;11.566;2023-11-19T11:11:04;0.40;;;0.40;;
25419;SDS011;13354;48.174;11.566;2023-11-19T11:13:31;0.40;;;0.40;;
25419;SDS011;13354;48.174;11.566;2023-11-19T11:15:57;0.35;;;0.35;;
25419;SDS011;13354;48.174;11.566;2023-11-19T11:18:23;0.40;;;0.40;;
25419;SDS011;13354;48.174;11.566;2023-11-19T11:20:49;0.50;;;0.28;;
25419;SDS011;13354;48.174;11.566;2023-11-19T11:23:36;0.35;;;0.30;;
25419;SDS011;13354;48.174;11.566;2023-11-19T11:29:01;0.25;;;0.25;;
25419;SDS011;13354;48.174;11.566;2023-11-19T11:31:41;0.40;;;0.40;;
25419;SDS011;13354;48.174;11.566;2023-11-19T11:39:30;0.52;;;0.30;;
25419;SDS011;13354;48.174;11.566;2023-11-19T11:50:09;0.30;;;0.30;;
25419;SDS011;13354;48.174;11.566;2023-11-19T11:55:26;0.30;;;0.30;;
25419;SDS011;13354;48.174;11.566;2023-11-19T11:58:07;0.75;;;0.40;;
25419;SDS011;13354;48.174;11.566;2023-11-19T12:00:37;0.30;;;0.30;;
25419;SDS011;13354;48.174;11.566;2023-11-19T12:03:04;0.52;;;0.30;;
25419;SDS011;13354;48.174;11.566;2023-11-19T12:05:32;0.73;;;0.30;;
25419;SDS011;13354;48.174;11.566;2023-11-19T12:08:05;0.20;;;0.20;;
25419;SDS011;13354;48.174;11.566;2023-11-19T12:10:45;0.50;;;0.30;;
25419;SDS011;13354;48.174;11.566;2023-11-19T12:13:15;0.32;;;0.30;;
25419;SDS011;13354;48.174;11.566;2023-11-19T12:18:28;0.38;;;0.38;;
25419;SDS011;13354;48.174;11.566;2023-11-19T12:20:55;0.40;;;0.40;;
25419;SDS011;13354;48.174;11.566;2023-11-19T12:23:22;0.40;;;0.40;;
25419;SDS011;13354;48.174;11.566;2023-11-19T12:25:47;0.30;;;0.30;;
25419;SDS011;13354;48.174;11.566;2023-11-19T12:28:13;0.30;;;0.30;;
25419;SDS011;13354;48.174;11.566;2023-11-19T12:30:42;0.45;;;0.30;;
25419;SDS011;13354;48.174;11.566;2023-11-19T12:33:09;0.85;;;0.40;;
25419;SDS011;13354;48.174;11.566;2023-11-19T12:35:38;0.38;;;0.30;;
25419;SDS011;13354;48.174;11.566;2023-11-19T12:38:08;0.30;;;0.25;;
25419;SDS011;13354;48.174;11.566;2023-11-19T12:40:43;0.43;;;0.40;;
25419;SDS011;13354;48.174;11.566;2023-11-19T12:43:08;0.70;;;0.28;;
25419;SDS011;13354;48.174;11.566;2023-11-19T12:45:36;0.40;;;0.30;;
25419;SDS011;13354;48.174;11.566;2023-11-19T12:48:08;0.30;;;0.28;;
25419;SDS011;13354;48.174;11.566;2023-11-19T12:50:50;1.00;;;0.30;;
25419;SDS011;13354;48.174;11.566;2023-11-19T12:53:20;0.22;;;0.22;;
25419;SDS011;13354;48.174;11.566;2023-11-19T12:55:46;0.50;;;0.30;;
25419;SDS011;13354;48.174;11.566;2023-11-19T12:58:31;0.38;;;0.38;;
25419;SDS011;13354;48.174;11.566;2023-11-19T13:01:04;0.20;;;0.20;;
25419;SDS011;13354;48.174;11.566;2023-11-19T13:03:35;0.43;;;0.30;;
25419;SDS011;13354;48.174;11.566;2023-11-19T13:06:03;0.70;;;0.40;;
25419;SDS011;13354;48.174;11.566;2023-11-19T13:08:39;0.30;;;0.20;;
25419;SDS011;13354;48.174;11.566;2023-11-19T13:11:06;0.27;;;0.27;;
25419;SDS011;13354;48.174;11.566;2023-11-19T13:13:33;0.30;;;0.30;;
25419;SDS011;13354;48.174;11.566;2023-11-19T13:16:02;0.30;;;0.30;;
25419;SDS011;13354;48.174;11.566;2023-11-19T13:18:30;0.45;;;0.30;;
25419;SDS011;13354;48.174;11.566;2023-11-19T13:20:55;0.45;;;0.43;;
25419;SDS011;13354;48.174;11.566;2023-11-19T13:25:50;0.93;;;0.40;;
25419;SDS011;13354;48.174;11.566;2023-11-19T13:28:15;0.50;;;0.40;;
25419;SDS011;13354;48.174;11.566;2023-11-19T13:30:40;1.20;;;0.43;;
25419;SDS011;13354;48.174;11.566;2023-11-19T13:33:06;0.90;;;0.60;;
25419;SDS011;13354;48.174;11.566;2023-11-19T13:35:31;3.58;;;0.50;;
25419;SDS011;13354;48.174;11.566;2023-11-19T13:37:56;1.70;;;0.60;;
25419;SDS011;13354;48.174;11.566;2023-11-19T13:40:22;1.10;;;0.50;;
25419;SDS011;13354;48.174;11.566;2023-11-19T13:42:49;0.98;;;0.38;;
25419;SDS011;13354;48.174;11.566;2023-11-19T13:45:15;1.70;;;0.70;;
25419;SDS011;13354;48.174;11.566;2023-11-19T13:47:41;0.50;;;0.40;;
25419;SDS011;13354;48.174;11.566;2023-11-19T13:50:11;1.70;;;0.60;;
25419;SDS011;13354;48.174;11.566;2023-11-19T13:52:38;0.32;;;0.30;;
25419;SDS011;13354;48.174;11.566;2023-11-19T13:55:05;1.55;;;0.40;;
25419;SDS011;13354;48.174;11.566;2023-11-19T13:57:32;0.40;;;0.30;;
25419;SDS011;13354;48.174;11.566;2023-11-19T13:59:57;1.02;;;0.43;;
25419;SDS011;13354;48.174;11.566;2023-11-19T14:02:22;0.43;;;0.30;;
25419;SDS011;13354;48.174;11.566;2023-11-19T14:04:48;0.30;;;0.30;;
25419;SDS011;13354;48.174;11.566;2023-11-19T14:07:13;0.32;;;0.30;;
25419;SDS011;13354;48.174;11.566;2023-11-19T14:09:41;0.30;;;0.30;;
25419;SDS011;13354;48.174;11.566;2023-11-19T14:12:07;0.40;;;0.40;;
25419;SDS011;13354;48.174;11.566;2023-11-19T14:14:34;0.45;;;0.40;;
25419;SDS011;13354;48.174;11.566;2023-11-19T14:16:59;0.50;;;0.40;;
25419;SDS011;13354;48.174;11.566;2023-11-19T14:19:28;2.58;;;2.20;;
25419;SDS011;13354;48.174;11.566;2023-11-19T14:21:53;1.40;;;0.60;;
25419;SDS011;13354;48.174;11.566;2023-11-19T14:24:19;0.47;;;0.32;;
25419;SDS011;13354;48.174;11.566;2023-11-19T14:26:45;1.58;;;0.40;;
25419;SDS011;13354;48.174;11.566;2023-11-19T14:29:12;0.40;;;0.40;;
25419;SDS011;13354;48.174;11.566;2023-11-19T14:31:37;0.30;;;0.30;;
25419;SDS011;13354;48.174;11.566;2023-11-19T14:34:04;2.00;;;1.48;;
25419;SDS011;13354;48.174;11.566;2023-11-19T14:36:30;1.30;;;0.43;;
25419;SDS011;13354;48.174;11.566;2023-11-19T14:38:55;0.68;;;0.50;;
25419;SDS011;13354;48.174;11.566;2023-11-19T14:41:20;0.50;;;0.50;;
25419;SDS011;13354;48.174;11.566;2023-11-19T14:43:46;0.47;;;0.47;;
25419;SDS011;13354;48.174;11.566;2023-11-19T14:46:12;0.73;;;0.50;;
25419;SDS011;13354;48.174;11.566;2023-11-19T14:48:37;1.13;;;0.47;;
25419;SDS011;13354;48.174;11.566;2023-11-19T14:51:02;0.40;;;0.40;;
25419;SDS011;13354;48.174;11.566;2023-11-19T14:53:28;0.30;;;0.30;;
25419;SDS011;13354;48.174;11.566;2023-11-19T14:55:53;0.55;;;0.35;;
25419;SDS011;13354;48.174;11.566;2023-11-19T14:58:19;1.10;;;0.50;;